Clarkedale, Arkansas
Current Conditions -  °F | °C
As of 10:53 AM on Tuesday 21 Oct 2014 (Local Time) from KAWM Reporting Station
Clear Clear  
Wind Chill: 72°   Ceiling: Unl
Heat Index: 72°   Visibility: 10mi
Dew Point: 51°   Wind: 5mph
Humidity: 48%   Direction: 40°NE
Pressure: 30.1"   Gusts: NA
Location:  35.31°N, 90.24°W
Report Text: KAWM 211553Z AUTO 04004KT 10SM CLR 22/11 A3010 RMK AO2 SLP190 T02220106
Loading
Personal Weather Stations






























Interactive Weather Map
Tropical Storm Tracking
New forecast layout! Learn more

10-Day Weather Forecast

Advertisements
Track Severe Weather on mobile